Time;durP1;ratioP1;P1;durP2;ratioP2;P2;SDS_P1;SDS_P2;PMS_P1;PMS_P2;Temp;Humidity;BMP_temperature;BMP_pressure;BME280_temperature;BME280_humidity;BME280_pressure;Samples;Min_cycle;Max_cycle;Signal;HPM_P1;HPM_P2
2022/03/14 00:00:35;;;;;;;;;;;;;;;3.21;66.46;100687.78;5040924;28;1487;-86
2022/03/14 00:03:01;;;;;;;;;;;;;;;3.13;65.34;100682.66;5041271;28;1382;-86
2022/03/14 00:05:28;;;;;;;;;;;;;;;3.21;64.84;100680.47;5039368;28;1378;-86
2022/03/14 00:07:53;;;;;;;;;;;;;;;3.32;65.35;100692.38;5027857;28;1894;-86
2022/03/14 00:10:18;;;;;;;;;;;;;;;3.39;65.45;100688.56;5037272;28;1331;-86
2022/03/14 00:12:44;;;;;;;;;;;;;;;3.39;64.94;100691.28;5041700;28;1447;-86
2022/03/14 00:15:13;;;;;;;;;;;;;;;3.44;64.38;100695.97;5040215;28;1387;-87
2022/03/14 00:17:40;;;;;;;;;;;;;;;3.32;65.89;100697.81;5056431;28;1327;-87
2022/03/14 00:20:07;;;;;;;;;;;;;;;3.26;67.31;100696.00;5050655;28;1517;-87
2022/03/14 00:22:32;;;;;;;;;;;;;;;3.20;66.65;100700.47;5037230;28;1673;-86
2022/03/14 00:24:57;;;;;;;;;;;;;;;3.13;65.84;100699.72;5039108;28;1388;-87
2022/03/14 00:27:22;;;;;;;;;;;;;;;3.07;63.08;100699.78;5056877;28;1019;-87
2022/03/14 00:29:48;;;;;;;;;;;;;;;3.06;63.36;100700.88;5039600;28;1898;-87
2022/03/14 00:32:13;;;;;;;;;;;;;;;2.93;66.53;100701.81;5056916;28;1015;-87
2022/03/14 00:34:38;;;;;;;;;;;;;;;2.70;67.73;100705.19;5038626;28;1275;-87
2022/03/14 00:37:03;;;;;;;;;;;;;;;2.53;67.46;100704.97;5038351;28;1427;-87
2022/03/14 00:39:28;;;;;;;;;;;;;;;2.45;69.75;100707.94;5054859;28;1358;-86
2022/03/14 00:41:54;;;;;;;;;;;;;;;2.54;68.11;100700.38;5055236;28;1180;-87
2022/03/14 00:44:19;;;;;;;;;;;;;;;2.56;67.31;100699.09;5054521;28;1209;-86
2022/03/14 00:46:44;;;;;;;;;;;;;;;2.69;66.88;100708.94;5038331;28;1458;-87
2022/03/14 00:49:09;;;;;;;;;;;;;;;2.63;68.55;100705.28;5034160;28;1905;-86
2022/03/14 00:51:35;;;;;;;;;;;;;;;2.37;68.44;100710.09;5049123;28;1606;-86
2022/03/14 00:54:01;;;;;;;;;;;;;;;2.15;69.23;100706.94;5038328;28;1555;-86
2022/03/14 00:56:27;;;;;;;;;;;;;;;1.98;69.49;100705.84;5055940;28;1211;-87
2022/03/14 00:58:52;;;;;;;;;;;;;;;2.00;70.17;100709.97;5055609;28;1419;-87
2022/03/14 01:01:17;;;;;;;;;;;;;;;2.18;69.37;100707.34;5038545;28;1549;-86
2022/03/14 01:03:42;;;;;;;;;;;;;;;2.14;69.24;100713.41;5039116;28;1227;-87
2022/03/14 01:06:07;;;;;;;;;;;;;;;1.88;70.23;100712.56;5036129;28;1554;-86
2022/03/14 01:08:37;;;;;;;;;;;;;;;1.87;71.07;100705.50;5041391;28;1942;-86
2022/03/14 01:11:03;;;;;;;;;;;;;;;1.96;69.48;100714.16;5019178;28;1192;-87
2022/03/14 01:13:28;;;;;;;;;;;;;;;2.12;69.65;100712.81;5032348;28;1598;-86
2022/03/14 01:15:53;;;;;;;;;;;;;;;2.18;69.48;100712.75;5038475;28;1518;-86
2022/03/14 01:18:18;;;;;;;;;;;;;;;2.06;70.07;100714.50;5037540;28;1416;-86
2022/03/14 01:20:43;;;;;;;;;;;;;;;2.07;70.95;100716.16;5050698;28;1501;-86
2022/03/14 01:23:09;;;;;;;;;;;;;;;1.96;70.79;100718.75;5038201;28;1325;-87
2022/03/14 01:25:35;;;;;;;;;;;;;;;2.00;70.33;100711.84;5037704;28;1457;-87
2022/03/14 01:28:01;;;;;;;;;;;;;;;2.07;69.30;100718.84;5057749;28;1875;-86
2022/03/14 01:30:26;;;;;;;;;;;;;;;2.18;68.14;100723.56;5038159;28;1232;-86
2022/03/14 01:32:51;;;;;;;;;;;;;;;2.27;68.83;100735.75;5037980;28;1400;-87
2022/03/14 01:35:19;;;;;;;;;;;;;;;2.34;69.41;100732.97;5035978;28;1321;-86
2022/03/14 01:37:48;;;;;;;;;;;;;;;2.38;68.39;100738.78;5037451;28;1354;-86
2022/03/14 01:40:14;;;;;;;;;;;;;;;2.39;68.83;100725.03;5055655;28;896;-87
2022/03/14 01:42:39;;;;;;;;;;;;;;;2.31;68.90;100727.19;5055530;28;1494;-87
2022/03/14 01:45:05;;;;;;;;;;;;;;;2.25;70.18;100734.28;5034703;28;1305;-87
2022/03/14 01:47:30;;;;;;;;;;;;;;;2.35;69.44;100734.63;5017877;28;1556;-86
2022/03/14 01:49:56;;;;;;;;;;;;;;;2.30;70.68;100742.56;5034539;28;1969;-87
2022/03/14 01:52:21;;;;;;;;;;;;;;;2.32;71.37;100750.44;5055216;28;829;-86
2022/03/14 01:54:47;;;;;;;;;;;;;;;2.23;71.11;100752.59;5018009;28;1334;-87
2022/03/14 01:57:13;;;;;;;;;;;;;;;2.27;71.64;100745.72;5035900;28;1554;-87
2022/03/14 01:59:38;;;;;;;;;;;;;;;2.25;71.17;100756.72;5059811;28;806;-86
2022/03/14 02:02:04;;;;;;;;;;;;;;;2.34;69.68;100754.59;5041675;28;1310;-87
2022/03/14 02:04:29;;;;;;;;;;;;;;;2.28;69.32;100747.38;5023402;28;1610;-87
2022/03/14 02:06:57;;;;;;;;;;;;;;;2.32;68.92;100751.28;5021274;28;1362;-87
2022/03/14 02:09:22;;;;;;;;;;;;;;;2.30;70.99;100750.66;5021045;28;1955;-87
2022/03/14 02:11:52;;;;;;;;;;;;;;;2.39;69.26;100760.13;5036679;28;1558;-87
2022/03/14 02:14:18;;;;;;;;;;;;;;;2.41;71.39;100765.31;5039577;28;1345;-87
2022/03/14 02:16:43;;;;;;;;;;;;;;;2.43;71.06;100774.88;5040240;28;1167;-87
2022/03/14 02:19:08;;;;;;;;;;;;;;;2.41;72.41;100774.25;5057184;28;1094;-86
2022/03/14 02:21:33;;;;;;;;;;;;;;;2.38;71.12;100769.31;5056978;28;1188;-87
2022/03/14 02:24:00;;;;;;;;;;;;;;;2.25;70.30;100778.34;5057095;28;1205;-87
2022/03/14 02:26:26;;;;;;;;;;;;;;;2.41;70.67;100787.75;5040312;28;1339;-87
2022/03/14 02:28:51;;;;;;;;;;;;;;;2.44;72.60;100776.53;5057247;28;1890;-87
2022/03/14 02:31:16;;;;;;;;;;;;;;;2.47;71.35;100789.59;5058101;28;1049;-86
2022/03/14 02:33:41;;;;;;;;;;;;;;;2.39;71.54;100787.16;5040163;28;1287;-86
2022/03/14 02:36:06;;;;;;;;;;;;;;;2.48;72.80;100796.63;5040027;28;1501;-86
2022/03/14 02:38:31;;;;;;;;;;;;;;;2.39;72.18;100794.44;5040052;28;1232;-87
2022/03/14 02:40:56;;;;;;;;;;;;;;;2.37;72.74;100791.16;5037192;28;1310;-86
2022/03/14 02:43:24;;;;;;;;;;;;;;;2.34;70.90;100797.81;5040374;28;1563;-86
2022/03/14 02:45:51;;;;;;;;;;;;;;;2.31;73.00;100800.09;5059005;28;1191;-86
2022/03/14 02:48:17;;;;;;;;;;;;;;;2.37;71.78;100799.25;5040839;28;1972;-86
2022/03/14 02:50:42;;;;;;;;;;;;;;;2.49;72.04;100803.69;5040844;28;1227;-86
2022/03/14 02:53:08;;;;;;;;;;;;;;;2.50;73.33;100808.06;5040333;28;1211;-87
2022/03/14 02:55:34;;;;;;;;;;;;;;;2.55;72.64;100805.50;5039160;28;1230;-87
2022/03/14 02:57:59;;;;;;;;;;;;;;;2.57;70.83;100808.84;5057518;28;1055;-87
2022/03/14 03:00:24;;;;;;;;;;;;;;;2.65;70.82;100810.44;5039492;28;1268;-86
2022/03/14 03:02:50;;;;;;;;;;;;;;;2.72;70.97;100813.94;5038627;28;1518;-88
2022/03/14 03:05:15;;;;;;;;;;;;;;;2.77;70.79;100815.94;5045677;28;1470;-87
2022/03/14 03:07:40;;;;;;;;;;;;;;;2.59;71.86;100808.63;5042004;28;1538;-86
2022/03/14 03:10:07;;;;;;;;;;;;;;;2.65;70.87;100821.22;5042224;28;1890;-87
2022/03/14 03:12:35;;;;;;;;;;;;;;;2.61;72.63;100828.97;5040881;28;1552;-86
2022/03/14 03:15:00;;;;;;;;;;;;;;;2.64;71.69;100820.41;5053348;28;1455;-86
2022/03/14 03:17:25;;;;;;;;;;;;;;;2.65;72.18;100823.94;5024599;28;1444;-87
2022/03/14 03:19:51;;;;;;;;;;;;;;;2.62;72.51;100822.53;5060492;28;1606;-87
2022/03/14 03:22:16;;;;;;;;;;;;;;;2.58;74.01;100832.09;5058646;28;802;-87
2022/03/14 03:24:41;;;;;;;;;;;;;;;2.54;73.04;100833.59;5039632;28;1234;-86
2022/03/14 03:27:06;;;;;;;;;;;;;;;2.50;72.47;100840.50;5039118;28;995;-87
2022/03/14 03:29:31;;;;;;;;;;;;;;;2.43;72.59;100845.13;5039533;28;1961;-86
2022/03/14 03:31:57;;;;;;;;;;;;;;;2.42;73.23;100848.84;5039599;28;1303;-86
2022/03/14 03:34:22;;;;;;;;;;;;;;;2.43;73.28;100855.91;5020758;28;1253;-86
2022/03/14 03:36:47;;;;;;;;;;;;;;;2.46;73.17;100863.59;5026838;28;1370;-86
2022/03/14 03:39:12;;;;;;;;;;;;;;;2.47;73.58;100859.00;5022394;28;1368;-86
2022/03/14 03:41:38;;;;;;;;;;;;;;;2.43;74.23;100860.50;5019308;28;1348;-86
2022/03/14 03:44:03;;;;;;;;;;;;;;;2.36;74.86;100865.13;5027224;28;1417;-87
2022/03/14 03:46:29;;;;;;;;;;;;;;;2.40;74.64;100869.84;5038809;28;1367;-86
2022/03/14 03:48:54;;;;;;;;;;;;;;;2.27;73.37;100873.47;5039124;28;1901;-86
2022/03/14 03:51:21;;;;;;;;;;;;;;;2.32;73.60;100880.09;5057038;28;1541;-87
2022/03/14 03:53:46;;;;;;;;;;;;;;;2.35;74.12;100885.06;5038943;28;1264;-87
2022/03/14 03:56:11;;;;;;;;;;;;;;;2.42;74.72;100889.38;5057107;28;1526;-88
2022/03/14 03:58:36;;;;;;;;;;;;;;;2.45;75.40;100899.75;5037305;28;1401;-86
2022/03/14 04:01:02;;;;;;;;;;;;;;;2.42;75.35;100900.19;5053808;28;950;-88
2022/03/14 04:03:27;;;;;;;;;;;;;;;2.42;74.86;100902.06;5036994;28;1328;-87
2022/03/14 04:05:52;;;;;;;;;;;;;;;2.37;75.28;100910.00;5053590;28;1292;-86
2022/03/14 04:08:19;;;;;;;;;;;;;;;2.36;74.87;100903.75;5053673;28;1894;-87
2022/03/14 04:10:53;;;;;;;;;;;;;;;2.39;74.92;100905.19;5036929;28;1245;-86
2022/03/14 04:13:18;;;;;;;;;;;;;;;2.36;76.00;100903.75;5036329;28;1268;-87
2022/03/14 04:15:51;;;;;;;;;;;;;;;2.35;74.71;100907.50;5039778;28;1455;-88
2022/03/14 04:18:18;;;;;;;;;;;;;;;2.40;73.44;100906.84;5035606;28;1427;-89
2022/03/14 04:20:43;;;;;;;;;;;;;;;2.41;72.58;100913.91;5036222;28;1274;-87
2022/03/14 04:23:08;;;;;;;;;;;;;;;2.47;73.34;100908.44;5049922;28;1402;-88
2022/03/14 04:25:34;;;;;;;;;;;;;;;2.49;73.51;100910.94;5049806;28;1292;-89
2022/03/14 04:27:59;;;;;;;;;;;;;;;2.50;74.30;100904.50;5033288;28;1917;-87
2022/03/14 04:30:25;;;;;;;;;;;;;;;2.50;73.84;100910.72;5038416;28;1498;-86
2022/03/14 04:32:50;;;;;;;;;;;;;;;2.45;73.71;100915.97;5036828;28;1239;-87
2022/03/14 04:35:15;;;;;;;;;;;;;;;2.48;74.94;100920.91;5036349;28;1459;-87
2022/03/14 04:37:40;;;;;;;;;;;;;;;2.49;72.92;100919.88;5035055;28;1287;-87
2022/03/14 04:40:06;;;;;;;;;;;;;;;2.55;71.65;100932.50;5016965;28;1266;-86
2022/03/14 04:42:32;;;;;;;;;;;;;;;2.66;72.24;100931.81;5017092;28;1279;-87
2022/03/14 04:44:57;;;;;;;;;;;;;;;2.69;72.47;100937.84;5016911;28;1339;-87
2022/03/14 04:47:22;;;;;;;;;;;;;;;2.61;75.09;100933.53;5016679;28;1208;-88
2022/03/14 04:49:47;;;;;;;;;;;;;;;2.50;75.70;100935.06;5016553;28;1957;-87
2022/03/14 04:52:13;;;;;;;;;;;;;;;2.46;73.85;100943.81;5034265;28;1055;-87
2022/03/14 04:54:39;;;;;;;;;;;;;;;2.47;73.90;100948.97;5033949;28;1368;-86
2022/03/14 04:57:05;;;;;;;;;;;;;;;2.44;73.37;100946.72;5034128;28;848;-86
2022/03/14 04:59:30;;;;;;;;;;;;;;;2.44;74.24;100949.44;5034124;28;941;-87
2022/03/14 05:01:55;;;;;;;;;;;;;;;2.48;75.82;100949.81;5034904;28;1387;-87
2022/03/14 05:04:20;;;;;;;;;;;;;;;2.41;76.64;100949.84;5036045;28;1225;-86
2022/03/14 05:06:45;;;;;;;;;;;;;;;2.47;74.39;100950.84;5036082;28;1314;-87
2022/03/14 05:09:11;;;;;;;;;;;;;;;2.54;73.54;100951.66;5036044;28;1898;-88
2022/03/14 05:11:38;;;;;;;;;;;;;;;2.49;74.89;100956.88;5036043;28;1255;-87
2022/03/14 05:14:04;;;;;;;;;;;;;;;2.56;72.83;100966.59;5035871;28;1257;-87
2022/03/14 05:16:29;;;;;;;;;;;;;;;2.66;73.62;100968.84;5036098;28;1366;-88
2022/03/14 05:18:54;;;;;;;;;;;;;;;2.64;74.14;100971.75;5020712;28;1279;-87
2022/03/14 05:21:19;;;;;;;;;;;;;;;2.63;75.54;100977.41;5034116;28;774;-86
2022/03/14 05:23:45;;;;;;;;;;;;;;;2.58;76.13;100975.31;5033936;28;896;-86
2022/03/14 05:26:10;;;;;;;;;;;;;;;2.55;76.88;100981.16;5016288;28;1358;-86
2022/03/14 05:28:35;;;;;;;;;;;;;;;2.52;76.43;100978.91;5024143;28;1931;-86
2022/03/14 05:31:00;;;;;;;;;;;;;;;2.32;75.72;100953.84;5053844;28;778;-86
2022/03/14 05:33:26;;;;;;;;;;;;;;;2.55;75.17;100983.84;5036188;28;858;-87
2022/03/14 05:35:51;;;;;;;;;;;;;;;2.56;75.37;100988.22;5036332;28;1238;-86
2022/03/14 05:38:17;;;;;;;;;;;;;;;2.52;76.60;100991.59;5033188;28;1223;-87
2022/03/14 05:40:42;;;;;;;;;;;;;;;2.53;76.14;100996.78;5032774;28;1275;-86
2022/03/14 05:43:08;;;;;;;;;;;;;;;2.47;77.61;101005.72;5032798;28;1327;-87
2022/03/14 05:45:33;;;;;;;;;;;;;;;2.44;78.12;101008.88;5015731;28;1276;-88
2022/03/14 05:47:58;;;;;;;;;;;;;;;2.52;77.07;101003.22;5020516;28;1959;-86
2022/03/14 05:50:24;;;;;;;;;;;;;;;2.58;76.32;101001.53;5031161;28;1397;-87
2022/03/14 05:52:50;;;;;;;;;;;;;;;2.64;76.24;101012.28;5033701;28;1345;-86
2022/03/14 05:55:15;;;;;;;;;;;;;;;2.70;74.74;101017.88;5047387;28;1478;-87
2022/03/14 05:57:40;;;;;;;;;;;;;;;2.72;73.55;101016.63;5051577;28;1386;-87
2022/03/14 06:00:06;;;;;;;;;;;;;;;2.84;72.64;101024.88;5036123;28;1454;-86
2022/03/14 06:02:34;;;;;;;;;;;;;;;2.89;72.63;101025.06;5052172;28;1225;-88
2022/03/14 06:04:59;;;;;;;;;;;;;;;2.92;72.92;101025.44;5036069;28;1403;-88
2022/03/14 06:07:24;;;;;;;;;;;;;;;2.96;71.13;101031.25;5046692;28;1462;-88
2022/03/14 06:09:50;;;;;;;;;;;;;;;3.08;71.36;101032.19;5016438;28;1968;-87
2022/03/14 06:12:25;;;;;;;;;;;;;;;3.13;72.33;101029.69;5026340;28;1369;-88
2022/03/14 06:14:51;;;;;;;;;;;;;;;3.00;74.63;101035.16;5036516;28;1502;-85
2022/03/14 06:17:16;;;;;;;;;;;;;;;2.98;72.87;101029.97;5022085;28;1460;-85
2022/03/14 06:19:42;;;;;;;;;;;;;;;3.06;72.33;101034.31;5019589;28;1317;-85
2022/03/14 06:22:07;;;;;;;;;;;;;;;3.05;73.79;101038.06;5037849;28;797;-84
2022/03/14 06:24:32;;;;;;;;;;;;;;;3.08;73.75;101042.19;5018477;28;1209;-84
2022/03/14 06:26:58;;;;;;;;;;;;;;;3.06;75.32;101042.44;5037001;28;1008;-84
2022/03/14 06:29:23;;;;;;;;;;;;;;;3.09;74.68;101041.16;5019124;28;1886;-86
2022/03/14 06:31:48;;;;;;;;;;;;;;;3.17;74.62;101055.25;5016707;28;1330;-86
2022/03/14 06:34:15;;;;;;;;;;;;;;;3.19;72.85;101058.56;5017913;28;1342;-87
2022/03/14 06:36:40;;;;;;;;;;;;;;;3.28;70.65;101064.53;5016573;28;1219;-84
2022/03/14 06:39:05;;;;;;;;;;;;;;;3.38;71.94;101063.00;5017204;28;1351;-86
2022/03/14 06:41:31;;;;;;;;;;;;;;;3.45;71.70;101079.19;5020773;28;1063;-83
2022/03/14 06:43:57;;;;;;;;;;;;;;;3.49;71.43;101087.72;5022686;28;1232;-87
2022/03/14 06:46:22;;;;;;;;;;;;;;;3.53;71.31;101087.03;5020629;28;1337;-88
2022/03/14 06:48:47;;;;;;;;;;;;;;;3.47;71.03;101092.50;5019837;28;1906;-88
2022/03/14 06:51:13;;;;;;;;;;;;;;;3.43;71.40;101094.81;5020593;28;1215;-87
2022/03/14 06:53:38;;;;;;;;;;;;;;;3.56;69.10;101100.13;5022730;28;1254;-87
2022/03/14 06:56:04;;;;;;;;;;;;;;;3.65;69.55;101106.13;5022931;28;1319;-86
2022/03/14 06:58:29;;;;;;;;;;;;;;;3.70;68.65;101111.69;5039415;28;1280;-86
2022/03/14 07:00:56;;;;;;;;;;;;;;;3.81;68.32;101105.56;5023229;28;1205;-87
2022/03/14 07:03:21;;;;;;;;;;;;;;;3.84;69.20;101104.28;5022532;28;1343;-86
2022/03/14 07:05:46;;;;;;;;;;;;;;;3.88;68.07;101109.03;5022641;28;1213;-87
2022/03/14 07:08:12;;;;;;;;;;;;;;;3.93;67.14;101117.31;5023358;28;1956;-87
2022/03/14 07:10:37;;;;;;;;;;;;;;;4.06;65.23;101116.38;5023626;28;1208;-86
2022/03/14 07:13:02;;;;;;;;;;;;;;;4.16;63.82;101117.53;5022663;28;1211;-87
2022/03/14 07:15:28;;;;;;;;;;;;;;;4.24;62.73;101121.00;5023392;28;1280;-86
2022/03/14 07:17:53;;;;;;;;;;;;;;;4.29;62.08;101127.41;5022516;28;1340;-87
2022/03/14 07:20:19;;;;;;;;;;;;;;;4.35;64.00;101121.06;5021164;28;1228;-87
2022/03/14 07:22:52;;;;;;;;;;;;;;;4.38;63.06;101119.81;5040154;28;1667;-87
2022/03/14 07:25:18;;;;;;;;;;;;;;;4.40;62.58;101131.25;5058276;28;1380;-87
2022/03/14 07:27:43;;;;;;;;;;;;;;;4.44;61.31;101127.88;5041257;28;1262;-87
2022/03/14 07:30:09;;;;;;;;;;;;;;;4.50;60.39;101129.69;5056186;28;1953;-87
2022/03/14 07:32:34;;;;;;;;;;;;;;;4.59;60.52;101129.41;5040675;28;1302;-85
2022/03/14 07:34:59;;;;;;;;;;;;;;;4.62;60.39;101127.03;5057428;28;1143;-86
2022/03/14 07:37:24;;;;;;;;;;;;;;;4.64;60.41;101137.66;5056860;28;1019;-85
2022/03/14 07:39:50;;;;;;;;;;;;;;;4.68;61.58;101133.47;5039533;28;1338;-87
2022/03/14 07:42:15;;;;;;;;;;;;;;;4.70;62.64;101132.16;5056699;28;860;-86
2022/03/14 07:44:41;;;;;;;;;;;;;;;4.73;63.17;101134.44;5038231;28;1283;-86
2022/03/14 07:47:10;;;;;;;;;;;;;;;4.81;61.39;101134.13;5056718;28;790;-86
2022/03/14 07:49:36;;;;;;;;;;;;;;;4.84;60.27;101141.00;5038850;28;1909;-86
2022/03/14 07:52:01;;;;;;;;;;;;;;;4.86;60.92;101149.69;5056117;28;782;-86
2022/03/14 07:54:26;;;;;;;;;;;;;;;4.87;62.79;101144.06;5037328;28;1314;-87
2022/03/14 07:56:51;;;;;;;;;;;;;;;4.91;61.59;101142.56;5039187;28;945;-86
2022/03/14 07:59:16;;;;;;;;;;;;;;;4.93;61.10;101143.13;5056919;28;999;-87
2022/03/14 08:01:41;;;;;;;;;;;;;;;4.95;62.67;101145.63;5038780;28;1047;-86
2022/03/14 08:04:06;;;;;;;;;;;;;;;4.97;62.36;101146.25;5037464;28;1207;-85
2022/03/14 08:06:35;;;;;;;;;;;;;;;5.00;62.00;101148.50;5039638;28;1297;-86
2022/03/14 08:09:00;;;;;;;;;;;;;;;5.03;63.01;101142.59;5057525;28;1901;-85
2022/03/14 08:11:30;;;;;;;;;;;;;;;5.09;62.85;101143.59;5039657;28;1276;-86
2022/03/14 08:13:55;;;;;;;;;;;;;;;5.11;62.64;101146.88;5057203;28;1278;-87
2022/03/14 08:16:20;;;;;;;;;;;;;;;5.16;63.46;101138.91;5056050;28;1196;-87
2022/03/14 08:18:45;;;;;;;;;;;;;;;5.25;64.36;101146.50;5056280;28;1003;-86
2022/03/14 08:21:10;;;;;;;;;;;;;;;5.31;64.32;101151.00;5039362;28;1236;-86
2022/03/14 08:23:36;;;;;;;;;;;;;;;5.35;65.16;101147.84;5057014;28;856;-86
2022/03/14 08:26:02;;;;;;;;;;;;;;;5.42;68.28;101162.97;5056434;28;1278;-85
2022/03/14 08:28:27;;;;;;;;;;;;;;;5.55;72.88;101157.34;5057468;28;1945;-83
2022/03/14 08:30:53;;;;;;;;;;;;;;;5.65;74.71;101157.59;5040130;28;1346;-84
2022/03/14 08:33:21;;;;;;;;;;;;;;;5.65;71.69;101164.94;5055599;28;801;-83
2022/03/14 08:35:47;;;;;;;;;;;;;;;5.54;70.93;101173.84;5037504;28;1390;-85
2022/03/14 08:38:13;;;;;;;;;;;;;;;5.46;70.25;101174.19;5054274;28;1263;-85
2022/03/14 08:40:39;;;;;;;;;;;;;;;5.39;70.37;101176.16;5038208;28;1325;-84
2022/03/14 08:43:04;;;;;;;;;;;;;;;5.41;70.82;101180.31;5039509;28;1051;-84
2022/03/14 08:45:29;;;;;;;;;;;;;;;5.37;70.64;101179.09;5038543;28;1319;-85
2022/03/14 08:47:54;;;;;;;;;;;;;;;5.39;71.18;101184.31;5058922;28;1115;-84
2022/03/14 08:50:19;;;;;;;;;;;;;;;5.41;72.29;101185.75;5040653;28;1963;-85
2022/03/14 08:52:45;;;;;;;;;;;;;;;5.41;72.53;101188.47;5054601;28;1193;-86
2022/03/14 08:55:11;;;;;;;;;;;;;;;5.40;73.30;101194.13;5036407;28;1380;-86
2022/03/14 08:57:36;;;;;;;;;;;;;;;5.39;73.71;101196.00;5054789;28;789;-86
2022/03/14 09:00:04;;;;;;;;;;;;;;;5.45;75.73;101205.09;5053923;28;1039;-86
2022/03/14 09:02:29;;;;;;;;;;;;;;;5.46;75.82;101204.88;5037269;28;1293;-87
2022/03/14 09:04:54;;;;;;;;;;;;;;;5.47;77.01;101211.97;5037709;28;1339;-86
2022/03/14 09:07:23;;;;;;;;;;;;;;;5.48;77.04;101207.38;5037544;28;1090;-87
2022/03/14 09:09:48;;;;;;;;;;;;;;;5.49;78.78;101215.28;5038058;28;1949;-87
2022/03/14 09:12:14;;;;;;;;;;;;;;;5.45;79.26;101216.78;5037629;28;930;-87
2022/03/14 09:14:40;;;;;;;;;;;;;;;5.43;79.88;101218.94;5054003;28;1596;-87
2022/03/14 09:17:05;;;;;;;;;;;;;;;5.41;79.78;101228.34;5037742;28;977;-87
2022/03/14 09:19:30;;;;;;;;;;;;;;;5.39;80.79;101230.47;5055764;28;1031;-87
2022/03/14 09:21:58;;;;;;;;;;;;;;;5.38;80.78;101243.19;5036446;28;869;-86
2022/03/14 09:24:23;;;;;;;;;;;;;;;5.38;80.91;101242.38;5052605;28;1266;-86
2022/03/14 09:26:49;;;;;;;;;;;;;;;5.42;80.71;101247.13;5036073;28;1388;-86
2022/03/14 09:29:15;;;;;;;;;;;;;;;5.46;81.45;101242.88;5036037;28;1957;-87
2022/03/14 09:31:40;;;;;;;;;;;;;;;5.49;81.02;101247.03;5036299;28;1398;-87
2022/03/14 09:34:05;;;;;;;;;;;;;;;5.55;81.29;101241.53;5053912;28;1201;-85
2022/03/14 09:36:30;;;;;;;;;;;;;;;5.63;81.88;101248.50;5052814;28;894;-86
2022/03/14 09:38:55;;;;;;;;;;;;;;;5.66;82.40;101246.19;5052570;28;1036;-86
2022/03/14 09:41:21;;;;;;;;;;;;;;;5.75;82.87;101248.56;5052574;28;1230;-86
2022/03/14 09:43:51;;;;;;;;;;;;;;;5.82;82.60;101244.69;5035767;28;1307;-86
2022/03/14 09:46:16;;;;;;;;;;;;;;;5.89;83.50;101252.78;5036516;28;1255;-86
2022/03/14 09:48:48;;;;;;;;;;;;;;;5.92;83.26;101252.31;5036283;28;1972;-85
2022/03/14 09:51:13;;;;;;;;;;;;;;;5.96;83.60;101265.22;5054411;28;864;-86
2022/03/14 09:53:38;;;;;;;;;;;;;;;5.97;84.04;101263.31;5036177;28;1192;-86
2022/03/14 09:56:04;;;;;;;;;;;;;;;5.96;84.15;101261.66;5054299;28;1283;-86
2022/03/14 09:58:29;;;;;;;;;;;;;;;5.97;84.47;101268.75;5054052;28;1007;-86
2022/03/14 10:00:54;;;;;;;;;;;;;;;6.00;83.91;101269.13;5054293;28;848;-84
2022/03/14 10:03:21;;;;;;;;;;;;;;;6.03;84.10;101270.56;5036572;28;1445;-84
2022/03/14 10:05:46;;;;;;;;;;;;;;;6.04;84.10;101275.75;5037434;28;1268;-87
2022/03/14 10:08:12;;;;;;;;;;;;;;;6.07;83.89;101282.63;5017006;28;1905;-86
2022/03/14 10:10:38;;;;;;;;;;;;;;;6.07;84.15;101271.75;5016828;28;1227;-87
2022/03/14 10:13:07;;;;;;;;;;;;;;;6.03;84.41;101278.72;5016280;28;1339;-88
2022/03/14 10:15:37;;;;;;;;;;;;;;;6.00;84.85;101282.72;5016310;28;1346;-85
2022/03/14 10:18:10;;;;;;;;;;;;;;;6.01;84.90;101286.28;5017653;28;1373;-86
2022/03/14 10:20:35;;;;;;;;;;;;;;;6.05;85.29;101287.44;5020527;28;1453;-87
2022/03/14 10:23:01;;;;;;;;;;;;;;;6.04;85.75;101292.06;5037709;28;1055;-86
2022/03/14 10:25:28;;;;;;;;;;;;;;;6.01;85.64;101295.25;5037788;28;1318;-86
2022/03/14 10:27:57;;;;;;;;;;;;;;;5.99;86.20;101299.25;5019609;28;1327;-86
2022/03/14 10:30:27;;;;;;;;;;;;;;;5.97;86.36;101302.19;5019397;28;1890;-86
2022/03/14 10:33:16;;;;;;;;;;;;;;;5.95;86.62;101300.78;5019429;28;1395;-86
2022/03/14 10:35:43;;;;;;;;;;;;;;;5.95;85.88;101298.91;5036978;28;1319;-87
2022/03/14 10:38:09;;;;;;;;;;;;;;;5.93;86.47;101308.34;5020105;28;1168;-87
2022/03/14 10:40:36;;;;;;;;;;;;;;;5.93;86.58;101306.44;5019989;28;1209;-86
2022/03/14 10:43:01;;;;;;;;;;;;;;;5.95;86.95;101300.78;5019124;28;1248;-86
2022/03/14 10:45:29;;;;;;;;;;;;;;;5.99;87.12;101310.13;5018966;28;1281;-86
2022/03/14 10:47:57;;;;;;;;;;;;;;;6.00;87.22;101307.19;5019327;28;1274;-87
2022/03/14 10:50:29;;;;;;;;;;;;;;;6.05;86.92;101309.19;5019078;28;1965;-87
2022/03/14 10:53:08;;;;;;;;;;;;;;;6.14;86.78;101315.97;5035929;28;1223;-86
2022/03/14 10:55:34;;;;;;;;;;;;;;;6.24;86.66;101315.41;5019178;28;1235;-87
2022/03/14 10:58:06;;;;;;;;;;;;;;;6.25;86.68;101317.91;5037329;28;814;-86
2022/03/14 11:00:43;;;;;;;;;;;;;;;6.23;87.02;101320.00;5019026;28;1386;-87
2022/03/14 11:03:08;;;;;;;;;;;;;;;6.22;86.84;101318.34;5018830;28;1342;-86
2022/03/14 11:05:42;;;;;;;;;;;;;;;6.19;87.42;101315.28;5019169;28;1169;-86
2022/03/14 11:08:24;;;;;;;;;;;;;;;6.20;87.39;101314.22;5019632;28;1961;-85
2022/03/14 11:10:49;;;;;;;;;;;;;;;6.23;87.97;101314.56;5043547;28;1180;-84
2022/03/14 11:13:14;;;;;;;;;;;;;;;6.26;87.56;101314.13;5057312;28;981;-87
2022/03/14 11:15:40;;;;;;;;;;;;;;;6.35;88.20;101318.16;5056541;28;1200;-86
2022/03/14 11:18:05;;;;;;;;;;;;;;;6.36;88.12;101319.81;5056913;28;880;-85
2022/03/14 11:20:31;;;;;;;;;;;;;;;6.37;88.44;101326.94;5039104;28;992;-86
2022/03/14 11:22:57;;;;;;;;;;;;;;;6.34;88.10;101318.38;5040815;28;1181;-84
2022/03/14 11:25:22;;;;;;;;;;;;;;;6.34;88.97;101316.50;5056928;28;1198;-86
2022/03/14 11:27:49;;;;;;;;;;;;;;;6.34;88.07;101321.94;5056350;28;849;-85
2022/03/14 11:30:15;;;;;;;;;;;;;;;6.38;88.58;101319.59;5056735;28;1867;-87
2022/03/14 11:32:44;;;;;;;;;;;;;;;6.45;88.32;101326.59;5038680;28;1199;-87
2022/03/14 11:35:09;;;;;;;;;;;;;;;6.56;88.57;101332.25;5056223;28;1205;-88
2022/03/14 11:37:35;;;;;;;;;;;;;;;6.57;88.61;101331.19;5038822;28;1315;-87
2022/03/14 11:40:03;;;;;;;;;;;;;;;6.55;88.82;101338.78;5038795;28;1256;-86
2022/03/14 11:42:28;;;;;;;;;;;;;;;6.47;89.07;101337.22;5056428;28;861;-86
2022/03/14 11:44:54;;;;;;;;;;;;;;;6.40;89.24;101341.91;5054820;28;1285;-87
2022/03/14 11:47:20;;;;;;;;;;;;;;;6.39;89.14;101341.09;5038293;28;1311;-86
2022/03/14 11:49:46;;;;;;;;;;;;;;;6.42;89.33;101340.63;5038439;28;1918;-88
2022/03/14 11:52:13;;;;;;;;;;;;;;;6.49;89.65;101340.53;5038132;28;1173;-87
2022/03/14 11:54:40;;;;;;;;;;;;;;;6.53;89.00;101339.00;5038000;28;1400;-86
2022/03/14 11:57:07;;;;;;;;;;;;;;;6.60;89.24;101342.47;5038360;28;1281;-86
2022/03/14 11:59:34;;;;;;;;;;;;;;;6.58;89.48;101343.75;5056037;28;864;-88
2022/03/14 12:02:03;;;;;;;;;;;;;;;6.53;89.34;101346.34;5038334;28;1208;-87
2022/03/14 12:04:29;;;;;;;;;;;;;;;6.47;89.15;101339.94;5056005;28;1194;-86
2022/03/14 12:06:55;;;;;;;;;;;;;;;6.47;90.25;101348.91;5055137;28;1357;-86
2022/03/14 12:09:23;;;;;;;;;;;;;;;6.47;90.07;101343.47;5038181;28;1898;-85
2022/03/14 12:11:49;;;;;;;;;;;;;;;6.51;90.23;101353.91;5038072;28;1327;-86
2022/03/14 12:14:34;;;;;;;;;;;;;;;6.57;89.81;101358.41;5037617;28;1265;-87
2022/03/14 12:17:06;;;;;;;;;;;;;;;6.69;89.80;101353.81;5053984;28;1565;-86
2022/03/14 12:19:38;;;;;;;;;;;;;;;6.70;89.72;101356.31;5027290;28;1315;-87
2022/03/14 12:22:03;;;;;;;;;;;;;;;6.66;89.99;101357.84;5037797;28;1554;-85
2022/03/14 12:24:35;;;;;;;;;;;;;;;6.62;90.40;101356.66;5049506;28;1409;-85
2022/03/14 12:27:00;;;;;;;;;;;;;;;6.62;90.01;101353.09;5034691;28;1183;-86
2022/03/14 12:29:35;;;;;;;;;;;;;;;6.67;90.65;101356.78;5045962;28;1910;-86
2022/03/14 12:32:21;;;;;;;;;;;;;;;6.72;90.17;101361.53;5020692;28;1364;-86
2022/03/14 12:34:54;;;;;;;;;;;;;;;6.76;90.76;101354.53;5033914;28;1365;-87
2022/03/14 12:37:24;;;;;;;;;;;;;;;6.86;90.39;101356.69;5034552;28;1265;-86
2022/03/14 12:39:49;;;;;;;;;;;;;;;6.92;90.59;101355.75;5036445;28;1349;-86
2022/03/14 12:42:19;;;;;;;;;;;;;;;6.97;90.32;101364.03;5055168;28;804;-87
2022/03/14 12:45:05;;;;;;;;;;;;;;;6.96;90.68;101365.09;5054878;28;1278;-84
2022/03/14 12:47:30;;;;;;;;;;;;;;;6.83;90.61;101374.31;5033127;28;1498;-86
2022/03/14 12:49:55;;;;;;;;;;;;;;;6.74;91.30;101373.81;5022710;28;1903;-87
2022/03/14 12:52:21;;;;;;;;;;;;;;;6.72;91.42;101375.94;5018359;28;1810;-87